Time;durP1;ratioP1;P1;durP2;ratioP2;P2;SDS_P1;SDS_P2;PMS_P1;PMS_P2;Temp;Humidity;BMP_temperature;BMP_pressure;BME280_temperature;BME280_humidity;BME280_pressure;Samples;Min_cycle;Max_cycle;Signal;HPM_P1;HPM_P2
2022/09/04 00:02:14;;;;;;;3.13;1.38;;;22.10;59.00;;;;;;4974223;28;20031;-70
2022/09/04 00:04:41;;;;;;;5.35;1.60;;;22.10;59.40;;;;;;4938322;28;20059;-69
2022/09/04 00:07:25;;;;;;;4.47;1.50;;;22.00;59.40;;;;;;4974144;28;20031;-70
2022/09/04 00:10:15;;;;;;;4.93;1.45;;;22.10;59.60;;;;;;4974671;28;20049;-70
2022/09/04 00:12:50;;;;;;;3.28;1.60;;;22.00;59.60;;;;;;4974007;28;20077;-70
2022/09/04 00:15:32;;;;;;;3.88;1.40;;;22.00;59.50;;;;;;4963812;28;20125;-70
2022/09/04 00:18:19;;;;;;;1.70;1.38;;;21.90;59.20;;;;;;4974916;28;20050;-70
2022/09/04 00:20:44;;;;;;;6.32;1.30;;;21.90;59.50;;;;;;4973883;28;20096;-70
2022/09/04 00:23:24;;;;;;;3.92;1.90;;;21.90;59.60;;;;;;4974605;28;20141;-70
2022/09/04 00:26:12;;;;;;;4.80;1.55;;;21.90;59.50;;;;;;4974480;28;20043;-69
2022/09/04 00:28:46;;;;;;;3.85;1.50;;;21.80;59.20;;;;;;4982145;28;20088;-69
2022/09/04 00:31:18;;;;;;;;;;;21.90;59.10;;;;;;4973690;28;20057;-70
2022/09/04 00:34:07;;;;;;;5.35;1.60;;;21.80;59.90;;;;;;4965551;28;20009;-70
2022/09/04 00:36:38;;;;;;;2.78;1.60;;;21.80;59.60;;;;;;4973411;28;20394;-70
2022/09/04 00:39:21;;;;;;;2.08;1.50;;;21.80;59.70;;;;;;4974786;28;20034;-70
2022/09/04 00:42:08;;;;;;;2.33;1.55;;;21.80;59.60;;;;;;4991479;28;20461;-69
2022/09/04 00:44:52;;;;;;;2.45;1.42;;;21.70;59.60;;;;;;4971252;28;20042;-70
2022/09/04 00:47:40;;;;;;;3.50;1.60;;;21.70;59.50;;;;;;4974188;28;20121;-70
2022/09/04 00:50:34;;;;;;;3.63;1.70;;;21.70;59.70;;;;;;4973641;28;20053;-69
2022/09/04 00:53:09;;;;;;;4.65;1.63;;;21.70;59.50;;;;;;4973440;28;20109;-69
2022/09/04 00:56:14;;;;;;;4.47;1.83;;;21.60;59.50;;;;;;4972323;28;20110;-69
2022/09/04 00:59:03;;;;;;;9.88;1.90;;;21.50;59.50;;;;;;4956302;28;20042;-70
2022/09/04 01:01:32;;;;;;;4.30;1.50;;;21.50;59.60;;;;;;4973661;28;20030;-69
2022/09/04 01:04:13;;;;;;;3.10;1.45;;;21.50;59.60;;;;;;4972288;28;20062;-69
2022/09/04 01:07:08;;;;;;;3.05;1.75;;;21.50;59.90;;;;;;4973837;28;20073;-69
2022/09/04 01:09:42;;;;;;;4.95;1.50;;;21.50;59.90;;;;;;4972580;28;20035;-70
2022/09/04 01:12:18;;;;;;;3.58;1.50;;;21.40;60.00;;;;;;4973923;28;20031;-70
2022/09/04 01:15:02;;;;;;;4.00;1.60;;;21.40;60.10;;;;;;4971837;28;20035;-69
2022/09/04 01:17:34;;;;;;;2.85;1.77;;;21.40;60.30;;;;;;4972610;28;20042;-69
2022/09/04 01:20:19;;;;;;;1.75;1.40;;;21.30;60.30;;;;;;4974822;28;20035;-69
2022/09/04 01:23:01;;;;;;;12.27;2.13;;;21.30;60.10;;;;;;4972635;28;20114;-70
2022/09/04 01:25:46;;;;;;;5.88;1.45;;;21.30;59.90;;;;;;4973123;28;20057;-69
2022/09/04 01:28:22;;;;;;;7.63;1.95;;;21.30;59.90;;;;;;4972319;28;20042;-69
2022/09/04 01:31:00;;;;;;;5.50;1.70;;;21.30;59.80;;;;;;4972854;28;20034;-70
2022/09/04 01:33:39;;;;;;;5.30;1.70;;;21.20;59.70;;;;;;4974261;28;20026;-69
2022/09/04 01:36:32;;;;;;;4.95;1.70;;;21.20;59.80;;;;;;4980287;28;20034;-69
2022/09/04 01:39:01;;;;;;;4.80;1.40;;;21.20;59.80;;;;;;4966279;28;20038;-69
2022/09/04 01:41:39;;;;;;;4.15;1.63;;;21.10;60.00;;;;;;4981479;28;20031;-69
2022/09/04 01:44:09;;;;;;;9.18;1.45;;;21.10;60.20;;;;;;4960821;28;20085;-69
2022/09/04 01:46:45;;;;;;;7.82;1.80;;;21.10;60.20;;;;;;4963076;28;20030;-69
2022/09/04 01:49:23;;;;;;;4.03;2.00;;;21.00;60.30;;;;;;4972083;28;20394;-69
2022/09/04 01:52:07;;;;;;;3.20;1.73;;;21.00;61.20;;;;;;4960779;28;20554;-69
2022/09/04 01:54:52;;;;;;;6.53;1.45;;;21.00;60.70;;;;;;4972161;28;20050;-69
2022/09/04 01:57:33;;;;;;;2.72;1.58;;;21.00;60.80;;;;;;4968400;28;20099;-69
2022/09/04 02:00:08;;;;;;;3.28;1.50;;;20.90;61.00;;;;;;4954054;28;20126;-69
2022/09/04 02:02:54;;;;;;;5.57;1.65;;;20.90;61.20;;;;;;4991587;28;20040;-69
2022/09/04 02:05:48;;;;;;;4.82;1.67;;;20.90;61.30;;;;;;4972862;28;20097;-69
2022/09/04 02:08:54;;;;;;;10.93;1.80;;;20.80;61.40;;;;;;4961331;28;20050;-69
2022/09/04 02:11:25;;;;;;;6.60;1.65;;;20.80;61.50;;;;;;4943647;28;20178;-69
2022/09/04 02:14:09;;;;;;;6.40;1.63;;;20.80;61.40;;;;;;4977982;28;20035;-69
2022/09/04 02:16:39;;;;;;;;;;;20.80;61.40;;;;;;4979338;28;20117;-69
2022/09/04 02:19:16;;;;;;;4.20;1.48;;;20.70;62.00;;;;;;4987392;28;19925;-69
2022/09/04 02:21:50;;;;;;;2.63;1.70;;;20.70;61.90;;;;;;4964714;28;20489;-69
2022/09/04 02:24:35;;;;;;;6.90;2.40;;;20.70;61.90;;;;;;4986987;28;20038;-69
2022/09/04 02:27:11;;;;;;;5.72;1.60;;;20.70;62.00;;;;;;4977281;28;21554;-69
2022/09/04 02:29:52;;;;;;;12.50;2.00;;;20.70;62.30;;;;;;4971284;28;20043;-69
2022/09/04 02:32:37;;;;;;;5.28;1.90;;;20.60;62.10;;;;;;4985895;28;20074;-70
2022/09/04 02:35:43;;;;;;;5.13;1.80;;;20.60;62.00;;;;;;4968852;28;20451;-69
2022/09/04 02:38:38;;;;;;;3.58;1.65;;;20.60;62.10;;;;;;4887038;29;20088;-69
2022/09/04 02:41:21;;;;;;;7.78;2.38;;;20.50;62.10;;;;;;4971250;28;20035;-69
2022/09/04 02:44:23;;;;;;;3.25;1.88;;;20.50;62.00;;;;;;4967075;28;20027;-69
2022/09/04 02:47:03;;;;;;;2.50;1.67;;;20.50;62.10;;;;;;4984545;28;20467;-69
2022/09/04 02:49:57;;;;;;;8.65;1.75;;;20.50;62.10;;;;;;4974511;28;20034;-69
2022/09/04 02:52:41;;;;;;;5.13;2.13;;;20.50;62.10;;;;;;4977751;28;20086;-69
2022/09/04 02:55:29;;;;;;;4.53;1.70;;;20.40;62.20;;;;;;4971572;28;20041;-69
2022/09/04 02:58:16;;;;;;;4.10;1.80;;;20.50;62.20;;;;;;4969362;28;20050;-69
2022/09/04 03:01:21;;;;;;;2.58;1.70;;;20.40;62.20;;;;;;4966745;28;20026;-69
2022/09/04 03:03:50;;;;;;;;;;;20.40;62.10;;;;;;4973403;28;20078;-69
2022/09/04 03:06:48;;;;;;;2.58;1.73;;;20.40;62.60;;;;;;4968565;28;19909;-69
2022/09/04 03:09:19;;;;;;;4.47;2.03;;;20.40;62.30;;;;;;4968328;28;20134;-69
2022/09/04 03:11:58;;;;;;;3.67;1.75;;;20.30;62.40;;;;;;4976451;28;20030;-69
2022/09/04 03:14:33;;;;;;;5.78;1.83;;;20.30;62.40;;;;;;4968342;28;20038;-69
2022/09/04 03:17:09;;;;;;;3.30;1.73;;;20.20;62.30;;;;;;4973401;28;20081;-69
2022/09/04 03:19:49;;;;;;;11.50;2.60;;;20.20;62.40;;;;;;4974969;28;20046;-69
2022/09/04 03:22:43;;;;;;;4.32;1.73;;;20.30;62.50;;;;;;4975982;28;20038;-69
2022/09/04 03:25:35;;;;;;;5.00;1.70;;;20.20;62.50;;;;;;4985575;28;20030;-69
2022/09/04 03:28:01;;;;;;;3.28;1.85;;;20.20;62.90;;;;;;4958506;28;20138;-69
2022/09/04 03:30:30;;;;;;;9.95;2.40;;;20.10;62.70;;;;;;4973983;28;20034;-69
2022/09/04 03:33:11;;;;;;;6.03;1.83;;;20.10;62.70;;;;;;4975543;28;20077;-69
2022/09/04 03:35:57;;;;;;;8.90;1.90;;;20.10;62.60;;;;;;4970952;28;20026;-69
2022/09/04 03:38:39;;;;;;;3.50;1.83;;;20.10;62.80;;;;;;4972360;28;20082;-69
2022/09/04 03:42:04;;;;;;;5.32;1.88;;;20.10;62.90;;;;;;4981282;28;20186;-69
2022/09/04 03:45:04;;;;;;;3.85;2.08;;;20.10;62.90;;;;;;4980068;28;20124;-69
2022/09/04 03:48:11;;;;;;;3.40;1.92;;;20.00;63.00;;;;;;4981252;28;20038;-69
2022/09/04 03:50:56;;;;;;;5.90;1.85;;;20.00;63.00;;;;;;4935670;29;20046;-69
2022/09/04 03:53:27;;;;;;;12.40;2.25;;;20.00;63.00;;;;;;4963892;28;20130;-69
2022/09/04 03:56:07;;;;;;;10.18;1.90;;;19.90;63.00;;;;;;4974485;28;20117;-69
2022/09/04 03:58:52;;;;;;;4.25;1.73;;;19.90;63.20;;;;;;4974091;28;20055;-69
2022/09/04 04:01:23;;;;;;;4.35;1.73;;;19.90;63.30;;;;;;4976361;28;20039;-70
2022/09/04 04:04:15;;;;;;;3.80;2.08;;;19.90;63.70;;;;;;4975971;28;20065;-69
2022/09/04 04:06:52;;;;;;;4.38;1.85;;;19.90;63.70;;;;;;4963634;28;20045;-69
2022/09/04 04:09:35;;;;;;;4.13;1.90;;;19.80;63.60;;;;;;4973598;28;20022;-69
2022/09/04 04:12:30;;;;;;;2.17;1.67;;;19.80;63.60;;;;;;4975368;28;20038;-69
2022/09/04 04:15:11;;;;;;;2.85;1.70;;;19.80;63.70;;;;;;4935114;28;20545;-69
2022/09/04 04:18:21;;;;;;;5.10;2.30;;;19.70;63.70;;;;;;4973288;28;20513;-69
2022/09/04 04:20:59;;;;;;;4.22;2.25;;;19.70;63.70;;;;;;4906670;29;20076;-69
2022/09/04 04:23:46;;;;;;;2.72;1.60;;;19.70;63.80;;;;;;4961294;28;20043;-69
2022/09/04 04:26:37;;;;;;;3.30;1.70;;;19.70;63.80;;;;;;4965858;28;20035;-69
2022/09/04 04:29:50;;;;;;;2.75;1.80;;;19.70;63.80;;;;;;4955775;28;20099;-69
2022/09/04 04:32:46;;;;;;;5.35;1.80;;;19.70;64.00;;;;;;4914719;29;20028;-69
2022/09/04 04:35:47;;;;;;;5.57;1.85;;;19.60;64.00;;;;;;4972190;28;20109;-69
2022/09/04 04:38:33;;;;;;;8.93;1.75;;;19.60;64.10;;;;;;4976015;28;20121;-69
2022/09/04 04:41:08;;;;;;;3.88;1.90;;;19.60;64.10;;;;;;4978102;28;20035;-69
2022/09/04 04:43:54;;;;;;;3.15;1.88;;;19.50;64.20;;;;;;4962448;28;20466;-69
2022/09/04 04:46:36;;;;;;;4.28;2.00;;;19.60;64.30;;;;;;4983706;28;20043;-69
2022/09/04 04:49:30;;;;;;;5.93;1.95;;;19.50;64.30;;;;;;4973943;28;20356;-69
2022/09/04 04:52:18;;;;;;;4.63;1.90;;;19.50;64.40;;;;;;4965476;28;20034;-68
2022/09/04 04:55:15;;;;;;;6.47;1.80;;;19.50;64.50;;;;;;4973368;28;20031;-69
2022/09/04 04:58:12;;;;;;;3.10;1.58;;;19.40;64.60;;;;;;4974257;28;20074;-69
2022/09/04 05:01:03;;;;;;;3.13;1.90;;;19.40;64.70;;;;;;4973925;28;20046;-69
2022/09/04 05:03:47;;;;;;;5.57;1.58;;;19.40;64.70;;;;;;4974123;28;20049;-68
2022/09/04 05:06:27;;;;;;;6.18;1.70;;;19.40;64.90;;;;;;4974100;28;20046;-68
2022/09/04 05:09:13;;;;;;;5.35;2.00;;;19.40;65.00;;;;;;4972382;28;20553;-68
2022/09/04 05:12:09;;;;;;;8.60;2.03;;;19.30;65.00;;;;;;4974152;28;20082;-68
2022/09/04 05:14:51;;;;;;;3.25;1.70;;;19.30;65.00;;;;;;4962087;28;20114;-69
2022/09/04 05:17:30;;;;;;;4.60;2.20;;;19.30;65.10;;;;;;4972804;28;20486;-68
2022/09/04 05:20:01;;;;;;;3.65;2.03;;;19.30;65.20;;;;;;4973947;28;20086;-68
2022/09/04 05:22:43;;;;;;;3.47;1.80;;;19.30;65.30;;;;;;4972485;28;20031;-68
2022/09/04 05:25:31;;;;;;;9.48;2.10;;;19.30;65.30;;;;;;4985300;28;20062;-68
2022/09/04 05:28:27;;;;;;;3.65;2.00;;;19.20;65.40;;;;;;4973632;28;20122;-68
2022/09/04 05:31:20;;;;;;;3.15;1.80;;;19.30;65.50;;;;;;4963353;28;20037;-68
2022/09/04 05:34:03;;;;;;;3.22;1.98;;;19.20;65.60;;;;;;4961751;28;20027;-68
2022/09/04 05:36:42;;;;;;;3.27;1.80;;;19.20;65.70;;;;;;4971143;28;20046;-68
2022/09/04 05:39:34;;;;;;;8.45;2.20;;;19.20;65.80;;;;;;4973603;28;20054;-68
2022/09/04 05:42:05;;;;;;;10.40;2.30;;;19.20;66.00;;;;;;4962184;28;20026;-68
2022/09/04 05:44:48;;;;;;;3.53;1.88;;;19.10;66.10;;;;;;4971709;28;20034;-68
2022/09/04 05:47:16;;;;;;;3.03;1.85;;;19.20;66.30;;;;;;4986619;28;20385;-68
2022/09/04 05:50:13;;;;;;;5.35;1.92;;;19.10;66.30;;;;;;4979037;28;20034;-68
2022/09/04 05:53:10;;;;;;;2.63;1.73;;;19.10;66.50;;;;;;4976096;28;21281;-68
2022/09/04 05:55:55;;;;;;;8.57;1.98;;;19.20;66.70;;;;;;4926536;28;20035;-69
2022/09/04 05:58:51;;;;;;;7.13;1.95;;;19.10;66.80;;;;;;4977416;28;20083;-69
2022/09/04 06:01:48;;;;;;;3.25;1.85;;;19.10;67.00;;;;;;4972062;28;20061;-69
2022/09/04 06:04:51;;;;;;;3.58;2.00;;;19.10;67.20;;;;;;4979334;28;20794;-69
2022/09/04 06:07:28;;;;;;;3.30;2.00;;;19.10;67.30;;;;;;4920871;28;20042;-68
2022/09/04 06:10:02;;;;;;;5.90;1.95;;;19.10;67.40;;;;;;4982555;28;20035;-69
2022/09/04 06:12:35;;;;;;;4.82;1.88;;;19.20;67.60;;;;;;4972357;28;20082;-69
2022/09/04 06:15:21;;;;;;;4.10;1.85;;;19.20;67.80;;;;;;4980583;28;20031;-68
2022/09/04 06:18:14;;;;;;;3.75;1.98;;;19.20;67.90;;;;;;4980226;28;20035;-68
2022/09/04 06:21:18;;;;;;;3.42;1.90;;;19.20;68.00;;;;;;4978986;28;20509;-69
2022/09/04 06:24:28;;;;;;;5.43;2.13;;;19.20;68.00;;;;;;4974563;28;20039;-71
2022/09/04 06:27:14;;;;;;;2.00;1.48;;;19.20;68.30;;;;;;4916083;28;20050;-71
2022/09/04 06:29:57;;;;;;;7.25;2.13;;;19.20;69.10;;;;;;4976622;28;20153;-71
2022/09/04 06:32:39;;;;;;;6.82;1.92;;;19.30;69.40;;;;;;4972706;28;20041;-72
2022/09/04 06:35:48;;;;;;;8.35;1.83;;;19.30;69.70;;;;;;4975962;28;20039;-73
2022/09/04 06:38:23;;;;;;;3.50;1.70;;;19.30;70.10;;;;;;4980432;28;20088;-72
2022/09/04 06:41:01;;;;;;;2.92;1.70;;;19.30;70.50;;;;;;4979585;28;20023;-71
2022/09/04 06:43:36;;;;;;;12.38;2.30;;;19.30;71.10;;;;;;4977413;28;20053;-72
2022/09/04 06:46:19;;;;;;;2.95;1.88;;;19.30;70.90;;;;;;4985427;28;20042;-72
2022/09/04 06:49:20;;;;;;;3.72;1.40;;;19.30;71.00;;;;;;4990090;28;20030;-71
2022/09/04 06:51:52;;;;;;;4.45;1.88;;;19.30;71.20;;;;;;4985268;28;20037;-71
2022/09/04 06:54:35;;;;;;;12.80;1.92;;;19.40;71.30;;;;;;4985798;28;20045;-71
2022/09/04 06:57:15;;;;;;;2.00;1.80;;;19.40;71.70;;;;;;4989291;28;20041;-72
2022/09/04 07:00:02;;;;;;;2.30;1.80;;;19.40;71.60;;;;;;4988605;28;20050;-72
2022/09/04 07:02:41;;;;;;;14.75;2.03;;;19.40;71.40;;;;;;4978466;28;20117;-71
2022/09/04 07:05:15;;;;;;;3.58;2.00;;;19.40;71.30;;;;;;4982870;28;20046;-71
2022/09/04 07:08:04;;;;;;;5.72;1.58;;;19.40;71.60;;;;;;4984815;28;20494;-70
2022/09/04 07:10:34;;;;;;;2.78;1.65;;;19.40;71.40;;;;;;4989606;28;20587;-72
2022/09/04 07:12:59;;;;;;;3.42;1.80;;;19.40;71.70;;;;;;4985432;28;20090;-72
2022/09/04 07:15:25;;;;;;;5.20;2.20;;;19.40;71.50;;;;;;4980198;28;20430;-69
2022/09/04 07:18:09;;;;;;;3.85;1.88;;;19.50;71.50;;;;;;4990954;28;20030;-71
2022/09/04 07:20:44;;;;;;;6.45;2.03;;;19.60;71.20;;;;;;4987704;28;20078;-70
2022/09/04 07:23:35;;;;;;;3.65;2.15;;;19.60;70.90;;;;;;4990812;28;20030;-70
2022/09/04 07:26:31;;;;;;;5.50;2.10;;;19.60;70.70;;;;;;4978504;28;20477;-72
2022/09/04 07:29:11;;;;;;;6.00;2.00;;;19.60;70.30;;;;;;4979091;28;20029;-72
2022/09/04 07:31:49;;;;;;;4.57;2.08;;;19.70;70.40;;;;;;4983490;28;20022;-72
2022/09/04 07:34:45;;;;;;;5.72;2.33;;;19.70;69.90;;;;;;4985908;28;20070;-72
2022/09/04 07:37:22;;;;;;;3.45;2.17;;;19.70;69.80;;;;;;4977412;28;20101;-72
2022/09/04 07:39:53;;;;;;;3.55;1.80;;;19.80;70.10;;;;;;4975221;28;20050;-72
2022/09/04 07:42:38;;;;;;;6.32;2.13;;;19.80;70.70;;;;;;4987981;28;20042;-72
2022/09/04 07:45:21;;;;;;;4.30;1.85;;;19.80;70.50;;;;;;4987067;28;20066;-72
2022/09/04 07:48:04;;;;;;;11.60;2.05;;;19.90;70.70;;;;;;4986309;28;20048;-72
2022/09/04 07:51:02;;;;;;;4.15;2.17;;;19.90;70.30;;;;;;4982069;28;20047;-71
2022/09/04 07:53:57;;;;;;;8.07;1.95;;;19.90;70.10;;;;;;4980168;28;20034;-71
2022/09/04 07:56:57;;;;;;;3.40;1.90;;;20.00;70.10;;;;;;4983645;28;20081;-71
2022/09/04 08:00:00;;;;;;;12.30;2.25;;;20.00;70.50;;;;;;4968015;28;20039;-72
2022/09/04 08:02:31;;;;;;;4.93;2.92;;;20.10;70.60;;;;;;4974391;28;20034;-72
2022/09/04 08:04:57;;;;;;;4.60;2.05;;;20.10;70.60;;;;;;4981661;28;20398;-72
2022/09/04 08:07:32;;;;;;;3.17;1.80;;;20.10;70.80;;;;;;4967604;28;20040;-72
2022/09/04 08:10:31;;;;;;;5.47;2.08;;;20.20;70.90;;;;;;4966644;28;20023;-73
2022/09/04 08:13:23;;;;;;;6.95;1.92;;;20.20;70.80;;;;;;4980980;28;20038;-72
2022/09/04 08:15:59;;;;;;;7.57;2.40;;;20.30;70.90;;;;;;4970058;28;20081;-75
2022/09/04 08:18:51;;;;;;;7.75;2.30;;;20.30;70.40;;;;;;4978001;28;20795;-73
2022/09/04 08:21:39;;;;;;;2.88;1.80;;;20.40;70.20;;;;;;4983567;28;20041;-73
2022/09/04 08:24:39;;;;;;;3.97;2.00;;;20.40;70.10;;;;;;4976662;28;20030;-73
2022/09/04 08:27:17;;;;;;;3.58;2.03;;;20.50;70.10;;;;;;4966310;28;20049;-74
2022/09/04 08:30:04;;;;;;;5.28;2.00;;;20.50;70.10;;;;;;4979627;28;20504;-72
2022/09/04 08:32:38;;;;;;;5.35;1.65;;;20.50;70.20;;;;;;4974924;28;20846;-73
2022/09/04 08:35:08;;;;;;;5.93;2.30;;;20.60;70.20;;;;;;4978111;28;20037;-73
2022/09/04 08:37:46;;;;;;;8.75;1.90;;;20.60;70.00;;;;;;4973891;28;20061;-73
2022/09/04 08:40:41;;;;;;;4.60;1.95;;;20.70;70.00;;;;;;4970825;28;20053;-73
2022/09/04 08:43:26;;;;;;;4.18;2.13;;;20.70;69.90;;;;;;4981070;28;20544;-72
2022/09/04 08:46:28;;;;;;;2.67;1.60;;;20.80;69.80;;;;;;4976127;28;20053;-72
2022/09/04 08:49:10;;;;;;;7.30;2.53;;;20.80;70.00;;;;;;4974008;28;20461;-72
2022/09/04 08:52:14;;;;;;;5.25;1.73;;;20.80;69.80;;;;;;4979689;28;20030;-72
2022/09/04 08:54:40;;;;;;;;;;;21.00;69.80;;;;;;4971933;28;20038;-72
2022/09/04 08:57:34;;;;;;;5.53;2.00;;;21.00;69.80;;;;;;4979071;28;20380;-70
2022/09/04 09:00:09;;;;;;;5.50;2.10;;;21.00;69.80;;;;;;4936575;28;20050;-70
2022/09/04 09:02:59;;;;;;;4.43;1.70;;;21.10;69.60;;;;;;4974947;28;20042;-70
2022/09/04 09:05:48;;;;;;;6.38;1.92;;;21.10;69.70;;;;;;4972587;28;20043;-71
2022/09/04 09:08:37;;;;;;;3.50;2.08;;;21.20;69.80;;;;;;4967239;28;20509;-70
2022/09/04 09:11:18;;;;;;;3.35;1.80;;;21.20;69.90;;;;;;4977778;28;20034;-71
2022/09/04 09:14:23;;;;;;;2.85;1.90;;;21.30;69.90;;;;;;4975950;28;20084;-69
2022/09/04 09:17:12;;;;;;;9.13;2.10;;;21.40;69.90;;;;;;4975756;28;20149;-70
2022/09/04 09:19:55;;;;;;;3.00;2.10;;;21.50;69.90;;;;;;4981892;28;20031;-70
2022/09/04 09:22:50;;;;;;;6.57;1.98;;;21.50;70.00;;;;;;4979202;28;20046;-70
2022/09/04 09:25:29;;;;;;;3.05;1.92;;;21.60;69.70;;;;;;4982552;28;20035;-70
2022/09/04 09:28:35;;;;;;;3.15;1.88;;;21.60;69.60;;;;;;4982880;28;20029;-70
2022/09/04 09:31:25;;;;;;;7.50;2.50;;;21.70;69.60;;;;;;4975892;28;20073;-70
2022/09/04 09:34:19;;;;;;;6.15;2.10;;;21.80;69.30;;;;;;4968461;28;20383;-70
2022/09/04 09:37:01;;;;;;;9.18;1.85;;;21.80;69.20;;;;;;4969517;28;20478;-70
2022/09/04 09:39:41;;;;;;;5.63;2.05;;;21.90;69.50;;;;;;4978328;28;20136;-70
2022/09/04 09:42:36;;;;;;;4.53;2.83;;;22.00;69.30;;;;;;4972962;28;20775;-71
2022/09/04 09:45:26;;;;;;;5.00;2.05;;;22.00;69.50;;;;;;4969265;28;20031;-69
2022/09/04 09:48:13;;;;;;;3.72;1.90;;;22.00;69.80;;;;;;4973215;28;20462;-70
2022/09/04 09:50:45;;;;;;;4.53;2.20;;;22.10;69.50;;;;;;4962293;28;20066;-70
2022/09/04 09:53:13;;;;;;;7.22;2.00;;;22.20;69.20;;;;;;4968236;28;20142;-70
2022/09/04 09:56:22;;;;;;;3.28;2.47;;;22.20;69.10;;;;;;4967129;28;20497;-71
2022/09/04 09:59:16;;;;;;;3.22;1.90;;;22.30;69.20;;;;;;4963357;28;20378;-70
2022/09/04 10:02:00;;;;;;;3.75;2.08;;;22.30;69.00;;;;;;4971446;28;20030;-71
2022/09/04 10:04:59;;;;;;;3.53;1.98;;;22.40;69.10;;;;;;4957098;28;20059;-70
2022/09/04 10:07:47;;;;;;;8.05;1.90;;;22.40;69.20;;;;;;4967882;28;20027;-71
2022/09/04 10:10:23;;;;;;;3.65;1.75;;;22.50;69.20;;;;;;4973302;28;20109;-70
2022/09/04 10:12:54;;;;;;;3.92;2.05;;;22.50;69.20;;;;;;4960920;28;20494;-70
2022/09/04 10:15:20;;;;;;;4.85;1.92;;;22.60;69.50;;;;;;4966516;28;20030;-70
2022/09/04 10:18:03;;;;;;;7.55;2.20;;;22.60;69.20;;;;;;4970419;28;20415;-70
2022/09/04 10:20:29;;;;;;;;;;;22.70;69.30;;;;;;4970319;28;20043;-71
2022/09/04 10:23:03;;;;;;;4.93;1.92;;;22.70;69.30;;;;;;4981181;28;19925;-70
2022/09/04 10:25:56;;;;;;;7.43;2.00;;;22.70;69.10;;;;;;4971811;28;20077;-69
2022/09/04 10:28:40;;;;;;;8.27;2.00;;;22.80;68.70;;;;;;4960722;28;20397;-70
2022/09/04 10:31:14;;;;;;;;;;;22.90;68.80;;;;;;4960671;28;20395;-70
2022/09/04 10:34:11;;;;;;;4.50;2.05;;;22.90;69.10;;;;;;4970470;28;19910;-71
2022/09/04 10:37:15;;;;;;;8.93;1.92;;;23.00;69.00;;;;;;4971624;28;20062;-71
2022/09/04 10:42:53;;;;;;;3.90;1.90;;;23.10;68.00;;;;;;4980935;28;20031;-71
2022/09/04 10:45:39;;;;;;;4.50;1.70;;;23.20;68.00;;;;;;4977377;28;20085;-72
2022/09/04 10:48:29;;;;;;;7.75;2.10;;;23.20;68.20;;;;;;4967570;28;20023;-71
2022/09/04 10:51:01;;;;;;;9.60;1.75;;;23.30;68.20;;;;;;4974897;28;20088;-71
2022/09/04 10:53:39;;;;;;;8.63;2.47;;;23.30;68.60;;;;;;4973557;28;20161;-71
2022/09/04 10:56:15;;;;;;;5.57;2.63;;;23.30;68.00;;;;;;4969741;28;20031;-71
2022/09/04 10:59:09;;;;;;;6.53;1.80;;;23.40;67.40;;;;;;4965029;28;20054;-71
2022/09/04 11:01:54;;;;;;;3.60;1.83;;;23.50;67.80;;;;;;4964960;28;20023;-71
2022/09/04 11:04:44;;;;;;;8.20;1.80;;;23.50;68.10;;;;;;4930334;28;1048508;-71
2022/09/04 11:07:48;;;;;;;3.67;1.80;;;23.60;68.10;;;;;;4973807;28;20038;-71
2022/09/04 11:10:23;;;;;;;3.95;1.88;;;23.60;68.10;;;;;;4973260;28;20042;-71
2022/09/04 11:12:58;;;;;;;5.35;1.90;;;23.60;67.90;;;;;;4976669;28;20032;-72
2022/09/04 11:15:35;;;;;;;4.15;1.92;;;23.70;67.90;;;;;;4965306;28;20035;-72
2022/09/04 11:18:29;;;;;;;2.33;1.80;;;23.70;67.90;;;;;;4971613;28;20798;-72
2022/09/04 11:21:01;;;;;;;2.55;1.60;;;23.80;67.40;;;;;;4967695;28;20074;-73
2022/09/04 11:24:08;;;;;;;6.88;2.17;;;23.80;67.70;;;;;;4983209;28;20027;-72
2022/09/04 11:27:06;;;;;;;3.97;1.90;;;23.90;67.90;;;;;;4967703;28;20034;-72
2022/09/04 11:29:44;;;;;;;4.68;1.80;;;23.90;67.60;;;;;;4971935;28;20031;-72
2022/09/04 11:32:19;;;;;;;7.95;1.90;;;24.00;67.40;;;;;;4972240;28;20038;-72
2022/09/04 11:35:18;;;;;;;4.63;1.85;;;24.00;67.00;;;;;;4968918;28;20030;-73
2022/09/04 11:38:05;;;;;;;2.15;1.48;;;24.10;67.60;;;;;;4970229;28;20030;-72
2022/09/04 11:40:46;;;;;;;3.10;1.70;;;24.10;67.40;;;;;;4972613;28;20050;-74
2022/09/04 11:44:09;;;;;;;3.17;1.92;;;24.20;66.60;;;;;;4976133;28;20538;-72
2022/09/04 11:46:50;;;;;;;3.22;1.77;;;24.20;66.70;;;;;;4865235;29;20029;-73
2022/09/04 11:49:43;;;;;;;5.38;1.80;;;24.30;66.20;;;;;;4864863;29;20069;-71
2022/09/04 11:52:22;;;;;;;3.53;1.85;;;24.40;66.30;;;;;;4953304;28;20545;-71
2022/09/04 11:55:17;;;;;;;2.95;1.80;;;24.40;65.90;;;;;;4975279;28;20042;-71
2022/09/04 11:58:08;;;;;;;8.23;1.67;;;24.50;65.90;;;;;;4961991;28;20440;-71
2022/09/04 12:01:08;;;;;;;3.63;1.58;;;24.60;66.00;;;;;;4964680;28;20074;-71
2022/09/04 12:03:48;;;;;;;3.10;1.60;;;24.60;65.70;;;;;;4957543;28;20081;-72
2022/09/04 12:06:27;;;;;;;2.20;1.48;;;24.60;65.50;;;;;;4983498;28;20129;-71
2022/09/04 12:09:08;;;;;;;5.10;1.58;;;24.70;64.90;;;;;;4960511;28;20423;-71
2022/09/04 12:11:56;;;;;;;4.30;1.80;;;24.80;64.70;;;;;;4972872;28;20026;-71
2022/09/04 12:14:53;;;;;;;3.45;1.95;;;24.90;64.40;;;;;;4972260;28;20406;-72
2022/09/04 12:18:00;;;;;;;3.22;1.95;;;25.00;64.50;;;;;;4967232;28;20041;-72
2022/09/04 12:20:37;;;;;;;4.30;1.85;;;25.00;64.10;;;;;;4941676;28;20050;-72
2022/09/04 12:23:24;;;;;;;2.85;1.60;;;25.10;63.90;;;;;;4980168;28;20415;-72
2022/09/04 12:26:21;;;;;;;5.10;1.55;;;25.10;63.30;;;;;;4972580;28;20035;-72
2022/09/04 12:29:16;;;;;;;3.88;1.48;;;25.20;63.30;;;;;;4961598;28;20035;-72
2022/09/04 12:32:07;;;;;;;2.97;1.73;;;25.30;63.30;;;;;;4967348;28;20549;-72
2022/09/04 12:35:05;;;;;;;4.07;1.70;;;25.30;63.10;;;;;;4968758;28;20398;-72
2022/09/04 12:38:09;;;;;;;6.05;1.52;;;25.40;63.10;;;;;;4953990;28;20816;-71
2022/09/04 12:40:53;;;;;;;5.13;1.83;;;25.50;64.20;;;;;;4905840;28;20101;-71
2022/09/04 12:43:29;;;;;;;2.50;1.60;;;25.50;63.80;;;;;;4975368;28;20023;-71
2022/09/04 12:46:11;;;;;;;6.18;1.55;;;25.60;64.00;;;;;;4968954;28;20107;-70
2022/09/04 12:48:42;;;;;;;3.65;1.50;;;25.60;63.70;;;;;;4962736;28;20062;-72
2022/09/04 12:51:15;;;;;;;4.03;1.40;;;25.70;63.10;;;;;;4970755;28;20030;-72
2022/09/04 12:53:54;;;;;;;2.42;1.33;;;25.70;63.30;;;;;;4975594;28;20066;-71
2022/09/04 12:56:47;;;;;;;6.38;1.88;;;25.80;63.80;;;;;;4970592;28;20031;-72
2022/09/04 12:59:39;;;;;;;2.35;1.40;;;25.80;63.50;;;;;;4969559;28;20070;-72
2022/09/04 13:02:16;;;;;;;5.53;1.80;;;25.80;63.00;;;;;;4988533;28;20034;-72
2022/09/04 13:05:19;;;;;;;3.83;1.85;;;25.90;62.90;;;;;;4976001;28;20047;-72
2022/09/04 13:07:58;;;;;;;3.72;1.38;;;25.90;62.80;;;;;;4962598;28;20034;-72
2022/09/04 13:10:42;;;;;;;3.00;1.45;;;26.00;63.10;;;;;;4971082;28;20077;-72
2022/09/04 13:13:37;;;;;;;4.70;1.70;;;26.00;62.30;;;;;;4976657;28;20478;-73
2022/09/04 13:16:15;;;;;;;2.95;1.67;;;26.10;62.20;;;;;;4936762;28;20031;-71
2022/09/04 13:18:58;;;;;;;1.90;1.30;;;26.10;61.80;;;;;;4960831;28;20045;-71
2022/09/04 13:21:55;;;;;;;5.85;1.80;;;26.20;61.50;;;;;;4968860;28;20022;-71
2022/09/04 13:25:01;;;;;;;5.25;1.60;;;26.20;61.10;;;;;;4969723;28;20038;-71
2022/09/04 13:27:26;;;;;;;9.27;1.98;;;26.30;61.30;;;;;;4921212;28;20846;-73
2022/09/04 13:30:20;;;;;;;7.07;1.63;;;26.40;61.30;;;;;;4966298;28;20097;-72
2022/09/04 13:33:14;;;;;;;2.58;1.58;;;26.40;61.30;;;;;;4965984;28;20038;-71
2022/09/04 13:36:09;;;;;;;2.95;1.65;;;26.50;62.10;;;;;;4968371;28;20042;-71
2022/09/04 13:39:01;;;;;;;2.92;1.70;;;26.50;61.50;;;;;;4964449;28;20046;-72
2022/09/04 13:41:58;;;;;;;3.05;2.00;;;26.60;61.50;;;;;;4971340;28;20037;-71
2022/09/04 13:44:39;;;;;;;2.70;1.33;;;26.70;60.90;;;;;;4970210;28;20036;-71
2022/09/04 13:47:19;;;;;;;3.50;1.60;;;26.70;61.50;;;;;;4964905;28;20427;-71
2022/09/04 13:49:58;;;;;;;2.80;1.83;;;26.80;61.00;;;;;;4974744;28;20031;-72
2022/09/04 13:52:41;;;;;;;3.97;1.70;;;26.90;60.90;;;;;;4965368;28;20023;-72
2022/09/04 13:55:12;;;;;;;2.13;1.67;;;26.90;60.90;;;;;;4970914;28;20038;-72
2022/09/04 13:57:46;;;;;;;9.65;2.03;;;26.90;60.20;;;;;;4970579;28;20037;-72
2022/09/04 14:00:15;;;;;;;4.53;1.85;;;27.00;60.40;;;;;;4964402;28;20105;-72
2022/09/04 14:02:43;;;;;;;3.40;1.52;;;27.00;59.70;;;;;;4960692;28;20499;-72
2022/09/04 14:05:16;;;;;;;3.33;1.50;;;27.00;59.90;;;;;;4968323;28;20054;-71
2022/09/04 14:07:43;;;;;;;;;;;27.10;60.40;;;;;;4961218;28;20039;-71
2022/09/04 14:10:37;;;;;;;2.60;1.65;;;27.10;62.00;;;;;;4968794;28;19913;-71
2022/09/04 14:13:24;;;;;;;2.97;1.48;;;27.10;61.70;;;;;;4953718;28;20489;-71
2022/09/04 14:16:02;;;;;;;2.17;1.50;;;27.10;61.00;;;;;;4967955;28;20027;-71
2022/09/04 14:18:46;;;;;;;3.50;1.67;;;27.10;60.60;;;;;;4958814;28;20047;-71
2022/09/04 14:21:26;;;;;;;2.88;1.40;;;27.20;60.80;;;;;;4973407;28;20759;-71
2022/09/04 14:24:12;;;;;;;5.88;1.77;;;27.20;61.70;;;;;;4972643;28;20363;-71